sensor_id;sensor_type;location;lat;lon;timestamp;P1;durP1;ratioP1;P2;durP2;ratioP2
32639;SDS011;19049;52.524;11.468;2022-10-16T00:01:26;2.70;;;0.70;;
32639;SDS011;19049;52.524;11.468;2022-10-16T00:03:54;0.60;;;0.60;;
32639;SDS011;19049;52.524;11.468;2022-10-16T00:06:21;1.70;;;0.80;;
32639;SDS011;19049;52.524;11.468;2022-10-16T00:08:47;0.93;;;0.80;;
32639;SDS011;19049;52.524;11.468;2022-10-16T00:11:33;0.67;;;0.60;;
32639;SDS011;19049;52.524;11.468;2022-10-16T00:14:02;0.80;;;0.53;;
32639;SDS011;19049;52.524;11.468;2022-10-16T00:16:30;0.40;;;0.40;;
32639;SDS011;19049;52.524;11.468;2022-10-16T00:18:56;1.23;;;0.63;;
32639;SDS011;19049;52.524;11.468;2022-10-16T00:21:26;1.33;;;0.70;;
32639;SDS011;19049;52.524;11.468;2022-10-16T00:23:54;0.67;;;0.60;;
32639;SDS011;19049;52.524;11.468;2022-10-16T00:26:25;0.90;;;0.53;;
32639;SDS011;19049;52.524;11.468;2022-10-16T00:28:52;1.13;;;0.80;;
32639;SDS011;19049;52.524;11.468;2022-10-16T00:31:18;0.80;;;0.60;;
32639;SDS011;19049;52.524;11.468;2022-10-16T00:33:46;1.23;;;0.53;;
32639;SDS011;19049;52.524;11.468;2022-10-16T00:36:13;0.50;;;0.50;;
32639;SDS011;19049;52.524;11.468;2022-10-16T00:38:40;0.43;;;0.43;;
32639;SDS011;19049;52.524;11.468;2022-10-16T00:41:07;0.40;;;0.40;;
32639;SDS011;19049;52.524;11.468;2022-10-16T00:46:37;0.57;;;0.30;;
32639;SDS011;19049;52.524;11.468;2022-10-16T00:49:07;0.30;;;0.30;;
32639;SDS011;19049;52.524;11.468;2022-10-16T00:51:47;0.93;;;0.40;;
32639;SDS011;19049;52.524;11.468;2022-10-16T00:54:17;0.43;;;0.33;;
32639;SDS011;19049;52.524;11.468;2022-10-16T00:56:55;0.60;;;0.30;;
32639;SDS011;19049;52.524;11.468;2022-10-16T00:59:25;0.40;;;0.40;;
32639;SDS011;19049;52.524;11.468;2022-10-16T01:01:56;0.23;;;0.20;;
32639;SDS011;19049;52.524;11.468;2022-10-16T01:04:24;0.50;;;0.40;;
32639;SDS011;19049;52.524;11.468;2022-10-16T01:07:00;0.90;;;0.40;;
32639;SDS011;19049;52.524;11.468;2022-10-16T01:15:27;0.50;;;0.40;;
32639;SDS011;19049;52.524;11.468;2022-10-16T01:20:39;1.70;;;0.43;;
32639;SDS011;19049;52.524;11.468;2022-10-16T01:28:41;0.53;;;0.37;;
32639;SDS011;19049;52.524;11.468;2022-10-16T01:31:21;0.57;;;0.40;;
32639;SDS011;19049;52.524;11.468;2022-10-16T01:33:56;0.80;;;0.50;;
32639;SDS011;19049;52.524;11.468;2022-10-16T01:36:33;0.60;;;0.50;;
32639;SDS011;19049;52.524;11.468;2022-10-16T01:39:03;1.20;;;0.50;;
32639;SDS011;19049;52.524;11.468;2022-10-16T01:41:32;0.30;;;0.30;;
32639;SDS011;19049;52.524;11.468;2022-10-16T01:44:08;0.40;;;0.40;;
32639;SDS011;19049;52.524;11.468;2022-10-16T01:46:39;1.57;;;0.50;;
32639;SDS011;19049;52.524;11.468;2022-10-16T01:49:08;0.47;;;0.40;;
32639;SDS011;19049;52.524;11.468;2022-10-16T01:51:35;1.07;;;0.50;;
32639;SDS011;19049;52.524;11.468;2022-10-16T01:54:02;0.93;;;0.50;;
32639;SDS011;19049;52.524;11.468;2022-10-16T01:56:33;0.73;;;0.50;;
32639;SDS011;19049;52.524;11.468;2022-10-16T02:01:35;0.33;;;0.30;;
32639;SDS011;19049;52.524;11.468;2022-10-16T02:04:06;0.57;;;0.50;;
32639;SDS011;19049;52.524;11.468;2022-10-16T02:06:37;0.50;;;0.50;;
32639;SDS011;19049;52.524;11.468;2022-10-16T02:09:03;1.17;;;0.60;;
32639;SDS011;19049;52.524;11.468;2022-10-16T02:11:29;1.07;;;0.70;;
32639;SDS011;19049;52.524;11.468;2022-10-16T02:14:05;0.70;;;0.60;;
32639;SDS011;19049;52.524;11.468;2022-10-16T02:16:35;0.67;;;0.53;;
32639;SDS011;19049;52.524;11.468;2022-10-16T02:19:01;0.70;;;0.53;;
32639;SDS011;19049;52.524;11.468;2022-10-16T02:21:29;0.63;;;0.50;;
32639;SDS011;19049;52.524;11.468;2022-10-16T02:24:08;2.10;;;0.80;;
32639;SDS011;19049;52.524;11.468;2022-10-16T02:26:52;0.90;;;0.70;;
32639;SDS011;19049;52.524;11.468;2022-10-16T02:30:08;1.27;;;0.80;;
32639;SDS011;19049;52.524;11.468;2022-10-16T02:32:42;1.67;;;0.60;;
32639;SDS011;19049;52.524;11.468;2022-10-16T02:35:10;0.60;;;0.60;;
32639;SDS011;19049;52.524;11.468;2022-10-16T02:37:37;0.63;;;0.60;;
32639;SDS011;19049;52.524;11.468;2022-10-16T02:40:05;0.50;;;0.50;;
32639;SDS011;19049;52.524;11.468;2022-10-16T02:42:35;0.87;;;0.80;;
32639;SDS011;19049;52.524;11.468;2022-10-16T02:45:03;0.50;;;0.50;;
32639;SDS011;19049;52.524;11.468;2022-10-16T02:47:29;0.73;;;0.50;;
32639;SDS011;19049;52.524;11.468;2022-10-16T02:49:55;0.73;;;0.47;;
32639;SDS011;19049;52.524;11.468;2022-10-16T02:52:20;0.97;;;0.60;;
32639;SDS011;19049;52.524;11.468;2022-10-16T02:54:46;0.50;;;0.50;;
32639;SDS011;19049;52.524;11.468;2022-10-16T02:57:12;1.00;;;0.60;;
32639;SDS011;19049;52.524;11.468;2022-10-16T02:59:38;0.77;;;0.70;;
32639;SDS011;19049;52.524;11.468;2022-10-16T03:02:03;0.67;;;0.60;;
32639;SDS011;19049;52.524;11.468;2022-10-16T03:04:29;0.83;;;0.60;;
32639;SDS011;19049;52.524;11.468;2022-10-16T03:06:55;0.73;;;0.60;;
32639;SDS011;19049;52.524;11.468;2022-10-16T03:09:20;1.23;;;0.70;;
32639;SDS011;19049;52.524;11.468;2022-10-16T03:11:48;0.70;;;0.70;;
32639;SDS011;19049;52.524;11.468;2022-10-16T03:14:14;0.50;;;0.50;;
32639;SDS011;19049;52.524;11.468;2022-10-16T03:16:40;1.17;;;0.70;;
32639;SDS011;19049;52.524;11.468;2022-10-16T03:19:06;0.50;;;0.50;;
32639;SDS011;19049;52.524;11.468;2022-10-16T03:21:32;0.73;;;0.60;;
32639;SDS011;19049;52.524;11.468;2022-10-16T03:23:57;0.67;;;0.67;;
32639;SDS011;19049;52.524;11.468;2022-10-16T03:26:23;1.70;;;0.60;;
32639;SDS011;19049;52.524;11.468;2022-10-16T03:28:48;0.80;;;0.60;;
32639;SDS011;19049;52.524;11.468;2022-10-16T03:31:14;2.10;;;0.97;;
32639;SDS011;19049;52.524;11.468;2022-10-16T03:33:40;0.50;;;0.50;;
32639;SDS011;19049;52.524;11.468;2022-10-16T03:36:05;0.60;;;0.60;;
32639;SDS011;19049;52.524;11.468;2022-10-16T03:38:31;2.20;;;0.87;;
32639;SDS011;19049;52.524;11.468;2022-10-16T03:40:57;2.33;;;0.60;;
32639;SDS011;19049;52.524;11.468;2022-10-16T03:43:23;1.07;;;0.70;;
32639;SDS011;19049;52.524;11.468;2022-10-16T03:45:50;0.70;;;0.70;;
32639;SDS011;19049;52.524;11.468;2022-10-16T03:48:16;1.30;;;0.87;;
32639;SDS011;19049;52.524;11.468;2022-10-16T03:50:43;3.30;;;0.83;;
32639;SDS011;19049;52.524;11.468;2022-10-16T03:53:08;0.60;;;0.60;;
32639;SDS011;19049;52.524;11.468;2022-10-16T03:55:34;1.30;;;1.20;;
32639;SDS011;19049;52.524;11.468;2022-10-16T03:58:00;0.73;;;0.60;;
32639;SDS011;19049;52.524;11.468;2022-10-16T04:00:26;0.70;;;0.70;;
32639;SDS011;19049;52.524;11.468;2022-10-16T04:02:52;1.20;;;0.70;;
32639;SDS011;19049;52.524;11.468;2022-10-16T04:05:17;0.70;;;0.70;;
32639;SDS011;19049;52.524;11.468;2022-10-16T04:07:45;0.60;;;0.60;;
32639;SDS011;19049;52.524;11.468;2022-10-16T04:10:11;0.83;;;0.70;;
32639;SDS011;19049;52.524;11.468;2022-10-16T04:12:36;0.83;;;0.67;;
32639;SDS011;19049;52.524;11.468;2022-10-16T04:15:02;0.63;;;0.63;;
32639;SDS011;19049;52.524;11.468;2022-10-16T04:17:28;0.87;;;0.70;;
32639;SDS011;19049;52.524;11.468;2022-10-16T04:19:53;1.50;;;0.80;;
32639;SDS011;19049;52.524;11.468;2022-10-16T04:22:19;1.27;;;1.03;;
32639;SDS011;19049;52.524;11.468;2022-10-16T04:24:45;2.47;;;0.80;;
32639;SDS011;19049;52.524;11.468;2022-10-16T04:27:10;2.27;;;0.87;;
32639;SDS011;19049;52.524;11.468;2022-10-16T04:29:36;1.00;;;0.70;;
32639;SDS011;19049;52.524;11.468;2022-10-16T04:32:04;0.70;;;0.67;;
32639;SDS011;19049;52.524;11.468;2022-10-16T04:34:30;0.77;;;0.60;;
32639;SDS011;19049;52.524;11.468;2022-10-16T04:36:55;0.73;;;0.73;;
32639;SDS011;19049;52.524;11.468;2022-10-16T04:39:21;0.80;;;0.60;;
32639;SDS011;19049;52.524;11.468;2022-10-16T04:41:46;0.83;;;0.83;;
32639;SDS011;19049;52.524;11.468;2022-10-16T04:44:12;0.63;;;0.60;;
32639;SDS011;19049;52.524;11.468;2022-10-16T04:46:38;0.70;;;0.70;;
32639;SDS011;19049;52.524;11.468;2022-10-16T04:49:03;1.20;;;0.60;;
32639;SDS011;19049;52.524;11.468;2022-10-16T04:51:29;0.90;;;0.80;;
32639;SDS011;19049;52.524;11.468;2022-10-16T04:53:55;0.67;;;0.60;;
32639;SDS011;19049;52.524;11.468;2022-10-16T04:56:21;1.33;;;0.53;;
32639;SDS011;19049;52.524;11.468;2022-10-16T04:58:47;1.17;;;0.60;;
32639;SDS011;19049;52.524;11.468;2022-10-16T05:01:13;1.23;;;0.63;;
32639;SDS011;19049;52.524;11.468;2022-10-16T05:03:38;0.87;;;0.63;;
32639;SDS011;19049;52.524;11.468;2022-10-16T05:06:05;0.70;;;0.70;;
32639;SDS011;19049;52.524;11.468;2022-10-16T05:08:31;1.07;;;0.80;;
32639;SDS011;19049;52.524;11.468;2022-10-16T05:10:57;1.93;;;0.70;;
32639;SDS011;19049;52.524;11.468;2022-10-16T05:13:23;1.10;;;0.73;;
32639;SDS011;19049;52.524;11.468;2022-10-16T05:15:49;0.63;;;0.63;;
32639;SDS011;19049;52.524;11.468;2022-10-16T05:18:15;0.50;;;0.50;;
32639;SDS011;19049;52.524;11.468;2022-10-16T05:20:41;1.23;;;0.70;;
32639;SDS011;19049;52.524;11.468;2022-10-16T05:23:07;1.27;;;0.80;;
32639;SDS011;19049;52.524;11.468;2022-10-16T05:25:35;0.80;;;0.63;;
32639;SDS011;19049;52.524;11.468;2022-10-16T05:28:01;1.00;;;0.70;;
32639;SDS011;19049;52.524;11.468;2022-10-16T05:30:26;1.60;;;1.00;;
32639;SDS011;19049;52.524;11.468;2022-10-16T05:32:52;1.20;;;1.00;;
32639;SDS011;19049;52.524;11.468;2022-10-16T05:35:18;0.90;;;0.80;;
32639;SDS011;19049;52.524;11.468;2022-10-16T05:37:45;1.03;;;0.80;;
32639;SDS011;19049;52.524;11.468;2022-10-16T05:40:11;1.23;;;0.90;;
32639;SDS011;19049;52.524;11.468;2022-10-16T05:42:39;0.67;;;0.63;;
32639;SDS011;19049;52.524;11.468;2022-10-16T05:45:06;0.90;;;0.90;;
32639;SDS011;19049;52.524;11.468;2022-10-16T05:47:33;0.90;;;0.90;;
32639;SDS011;19049;52.524;11.468;2022-10-16T05:49:59;0.80;;;0.80;;
32639;SDS011;19049;52.524;11.468;2022-10-16T05:52:26;0.80;;;0.80;;
32639;SDS011;19049;52.524;11.468;2022-10-16T05:54:51;0.87;;;0.87;;
32639;SDS011;19049;52.524;11.468;2022-10-16T05:57:17;1.00;;;0.90;;
32639;SDS011;19049;52.524;11.468;2022-10-16T05:59:43;1.70;;;0.80;;
32639;SDS011;19049;52.524;11.468;2022-10-16T06:02:11;0.90;;;0.80;;
32639;SDS011;19049;52.524;11.468;2022-10-16T06:04:38;0.70;;;0.70;;
32639;SDS011;19049;52.524;11.468;2022-10-16T06:07:03;2.87;;;1.07;;
32639;SDS011;19049;52.524;11.468;2022-10-16T06:09:29;0.80;;;0.60;;
32639;SDS011;19049;52.524;11.468;2022-10-16T06:11:55;2.20;;;0.70;;
32639;SDS011;19049;52.524;11.468;2022-10-16T06:14:21;1.60;;;0.77;;
32639;SDS011;19049;52.524;11.468;2022-10-16T06:16:46;1.03;;;0.80;;
32639;SDS011;19049;52.524;11.468;2022-10-16T06:19:12;0.97;;;0.77;;
32639;SDS011;19049;52.524;11.468;2022-10-16T06:21:38;0.80;;;0.80;;
32639;SDS011;19049;52.524;11.468;2022-10-16T06:24:03;0.80;;;0.80;;
32639;SDS011;19049;52.524;11.468;2022-10-16T06:26:30;1.80;;;0.83;;
32639;SDS011;19049;52.524;11.468;2022-10-16T06:28:56;0.63;;;0.63;;
32639;SDS011;19049;52.524;11.468;2022-10-16T06:31:23;0.80;;;0.80;;
32639;SDS011;19049;52.524;11.468;2022-10-16T06:33:54;0.97;;;0.77;;
32639;SDS011;19049;52.524;11.468;2022-10-16T06:36:20;1.10;;;0.70;;
32639;SDS011;19049;52.524;11.468;2022-10-16T06:38:45;0.70;;;0.67;;
32639;SDS011;19049;52.524;11.468;2022-10-16T06:41:12;0.80;;;0.70;;
32639;SDS011;19049;52.524;11.468;2022-10-16T06:43:39;1.87;;;0.63;;
32639;SDS011;19049;52.524;11.468;2022-10-16T06:46:06;1.70;;;0.63;;
32639;SDS011;19049;52.524;11.468;2022-10-16T06:48:34;2.00;;;0.80;;
32639;SDS011;19049;52.524;11.468;2022-10-16T06:51:01;1.67;;;0.90;;
32639;SDS011;19049;52.524;11.468;2022-10-16T06:53:29;1.77;;;0.80;;
32639;SDS011;19049;52.524;11.468;2022-10-16T06:55:56;2.07;;;0.80;;
32639;SDS011;19049;52.524;11.468;2022-10-16T06:58:22;2.10;;;0.97;;
32639;SDS011;19049;52.524;11.468;2022-10-16T07:00:49;0.83;;;0.83;;
32639;SDS011;19049;52.524;11.468;2022-10-16T07:03:19;1.77;;;1.03;;
32639;SDS011;19049;52.524;11.468;2022-10-16T07:05:45;3.47;;;1.30;;
32639;SDS011;19049;52.524;11.468;2022-10-16T07:08:11;1.00;;;0.90;;
32639;SDS011;19049;52.524;11.468;2022-10-16T07:10:36;1.17;;;1.07;;
32639;SDS011;19049;52.524;11.468;2022-10-16T07:13:02;1.23;;;1.10;;
32639;SDS011;19049;52.524;11.468;2022-10-16T07:15:28;2.13;;;1.40;;
32639;SDS011;19049;52.524;11.468;2022-10-16T07:17:53;0.90;;;0.70;;
32639;SDS011;19049;52.524;11.468;2022-10-16T07:20:19;0.93;;;0.83;;
32639;SDS011;19049;52.524;11.468;2022-10-16T07:22:45;1.50;;;0.83;;
32639;SDS011;19049;52.524;11.468;2022-10-16T07:25:11;0.87;;;0.87;;
32639;SDS011;19049;52.524;11.468;2022-10-16T07:27:37;0.80;;;0.70;;
32639;SDS011;19049;52.524;11.468;2022-10-16T07:30:03;1.13;;;0.80;;
32639;SDS011;19049;52.524;11.468;2022-10-16T07:32:29;1.53;;;0.90;;
32639;SDS011;19049;52.524;11.468;2022-10-16T07:34:55;1.00;;;0.80;;
32639;SDS011;19049;52.524;11.468;2022-10-16T07:37:20;1.23;;;0.80;;
32639;SDS011;19049;52.524;11.468;2022-10-16T07:39:49;0.80;;;0.80;;
32639;SDS011;19049;52.524;11.468;2022-10-16T07:42:14;1.73;;;0.77;;
32639;SDS011;19049;52.524;11.468;2022-10-16T07:44:40;1.20;;;1.10;;
32639;SDS011;19049;52.524;11.468;2022-10-16T07:47:06;1.00;;;0.90;;
32639;SDS011;19049;52.524;11.468;2022-10-16T07:49:33;1.30;;;1.00;;
32639;SDS011;19049;52.524;11.468;2022-10-16T07:51:58;1.50;;;0.90;;
32639;SDS011;19049;52.524;11.468;2022-10-16T07:54:24;0.83;;;0.83;;
32639;SDS011;19049;52.524;11.468;2022-10-16T07:56:50;1.03;;;0.90;;
32639;SDS011;19049;52.524;11.468;2022-10-16T07:59:15;2.03;;;0.83;;
32639;SDS011;19049;52.524;11.468;2022-10-16T08:01:41;1.37;;;1.17;;
32639;SDS011;19049;52.524;11.468;2022-10-16T08:04:07;1.37;;;1.00;;
32639;SDS011;19049;52.524;11.468;2022-10-16T08:06:38;3.13;;;1.13;;
32639;SDS011;19049;52.524;11.468;2022-10-16T08:09:05;1.07;;;0.97;;
32639;SDS011;19049;52.524;11.468;2022-10-16T08:11:31;1.00;;;0.90;;
32639;SDS011;19049;52.524;11.468;2022-10-16T08:13:57;1.37;;;1.27;;
32639;SDS011;19049;52.524;11.468;2022-10-16T08:16:23;0.90;;;0.90;;
32639;SDS011;19049;52.524;11.468;2022-10-16T08:18:49;1.40;;;1.10;;
32639;SDS011;19049;52.524;11.468;2022-10-16T08:21:17;3.93;;;1.23;;
32639;SDS011;19049;52.524;11.468;2022-10-16T08:23:44;0.80;;;0.80;;
32639;SDS011;19049;52.524;11.468;2022-10-16T08:26:10;1.20;;;0.80;;
32639;SDS011;19049;52.524;11.468;2022-10-16T08:28:36;0.80;;;0.80;;
32639;SDS011;19049;52.524;11.468;2022-10-16T08:31:12;2.57;;;0.80;;
32639;SDS011;19049;52.524;11.468;2022-10-16T08:33:40;2.93;;;0.80;;
32639;SDS011;19049;52.524;11.468;2022-10-16T08:36:09;1.10;;;0.90;;
32639;SDS011;19049;52.524;11.468;2022-10-16T08:38:35;0.60;;;0.60;;
32639;SDS011;19049;52.524;11.468;2022-10-16T08:41:07;0.90;;;0.90;;
32639;SDS011;19049;52.524;11.468;2022-10-16T08:43:43;3.40;;;0.87;;
32639;SDS011;19049;52.524;11.468;2022-10-16T08:49:22;1.07;;;0.70;;
32639;SDS011;19049;52.524;11.468;2022-10-16T08:51:49;1.47;;;0.80;;
32639;SDS011;19049;52.524;11.468;2022-10-16T08:57:09;1.60;;;0.80;;
32639;SDS011;19049;52.524;11.468;2022-10-16T08:59:42;1.07;;;0.73;;
32639;SDS011;19049;52.524;11.468;2022-10-16T09:02:18;0.60;;;0.60;;
32639;SDS011;19049;52.524;11.468;2022-10-16T09:05:15;1.60;;;0.90;;
32639;SDS011;19049;52.524;11.468;2022-10-16T09:19:04;1.10;;;0.60;;
32639;SDS011;19049;52.524;11.468;2022-10-16T09:21:35;1.33;;;0.50;;
32639;SDS011;19049;52.524;11.468;2022-10-16T09:24:16;1.20;;;0.60;;
32639;SDS011;19049;52.524;11.468;2022-10-16T09:26:44;1.70;;;0.50;;
32639;SDS011;19049;52.524;11.468;2022-10-16T09:29:14;1.50;;;0.60;;
32639;SDS011;19049;52.524;11.468;2022-10-16T09:31:42;0.47;;;0.40;;
32639;SDS011;19049;52.524;11.468;2022-10-16T09:34:13;1.03;;;0.40;;
32639;SDS011;19049;52.524;11.468;2022-10-16T09:36:44;0.40;;;0.37;;
32639;SDS011;19049;52.524;11.468;2022-10-16T09:39:11;1.83;;;0.40;;
32639;SDS011;19049;52.524;11.468;2022-10-16T09:41:38;0.80;;;0.50;;
32639;SDS011;19049;52.524;11.468;2022-10-16T09:44:21;0.93;;;0.40;;
32639;SDS011;19049;52.524;11.468;2022-10-16T09:46:48;0.40;;;0.40;;
32639;SDS011;19049;52.524;11.468;2022-10-16T09:51:48;0.40;;;0.30;;
32639;SDS011;19049;52.524;11.468;2022-10-16T09:54:15;1.57;;;0.40;;
32639;SDS011;19049;52.524;11.468;2022-10-16T09:56:43;2.93;;;0.50;;
32639;SDS011;19049;52.524;11.468;2022-10-16T09:59:12;0.50;;;0.40;;
32639;SDS011;19049;52.524;11.468;2022-10-16T10:01:43;0.67;;;0.47;;
32639;SDS011;19049;52.524;11.468;2022-10-16T10:04:20;0.40;;;0.30;;
32639;SDS011;19049;52.524;11.468;2022-10-16T10:06:51;0.50;;;0.50;;
32639;SDS011;19049;52.524;11.468;2022-10-16T10:09:25;0.80;;;0.40;;
32639;SDS011;19049;52.524;11.468;2022-10-16T10:12:22;0.87;;;0.40;;
32639;SDS011;19049;52.524;11.468;2022-10-16T10:14:50;1.07;;;0.50;;
32639;SDS011;19049;52.524;11.468;2022-10-16T10:17:19;0.23;;;0.23;;
32639;SDS011;19049;52.524;11.468;2022-10-16T10:19:50;0.57;;;0.40;;
32639;SDS011;19049;52.524;11.468;2022-10-16T10:22:28;0.50;;;0.50;;
32639;SDS011;19049;52.524;11.468;2022-10-16T10:35:34;0.30;;;0.30;;
32639;SDS011;19049;52.524;11.468;2022-10-16T10:46:16;0.60;;;0.60;;
32639;SDS011;19049;52.524;11.468;2022-10-16T10:48:59;1.50;;;0.50;;
32639;SDS011;19049;52.524;11.468;2022-10-16T10:57:52;0.50;;;0.43;;
32639;SDS011;19049;52.524;11.468;2022-10-16T11:01:16;0.80;;;0.30;;
32639;SDS011;19049;52.524;11.468;2022-10-16T11:03:53;0.50;;;0.40;;
32639;SDS011;19049;52.524;11.468;2022-10-16T11:06:41;0.50;;;0.50;;
32639;SDS011;19049;52.524;11.468;2022-10-16T11:09:22;0.30;;;0.30;;
32639;SDS011;19049;52.524;11.468;2022-10-16T11:14:41;0.30;;;0.30;;
32639;SDS011;19049;52.524;11.468;2022-10-16T11:17:16;0.40;;;0.40;;
32639;SDS011;19049;52.524;11.468;2022-10-16T11:19:52;0.90;;;0.40;;
32639;SDS011;19049;52.524;11.468;2022-10-16T11:22:40;1.33;;;0.40;;
32639;SDS011;19049;52.524;11.468;2022-10-16T11:30:52;0.47;;;0.40;;
32639;SDS011;19049;52.524;11.468;2022-10-16T11:33:27;1.13;;;0.40;;
32639;SDS011;19049;52.524;11.468;2022-10-16T11:38:58;0.40;;;0.40;;
32639;SDS011;19049;52.524;11.468;2022-10-16T11:46:58;0.90;;;0.50;;
32639;SDS011;19049;52.524;11.468;2022-10-16T11:49:36;0.57;;;0.40;;
32639;SDS011;19049;52.524;11.468;2022-10-16T11:52:19;0.40;;;0.40;;
32639;SDS011;19049;52.524;11.468;2022-10-16T11:57:26;0.77;;;0.50;;
32639;SDS011;19049;52.524;11.468;2022-10-16T12:05:03;0.97;;;0.50;;
32639;SDS011;19049;52.524;11.468;2022-10-16T12:07:52;0.90;;;0.50;;
32639;SDS011;19049;52.524;11.468;2022-10-16T12:10:32;0.87;;;0.50;;
32639;SDS011;19049;52.524;11.468;2022-10-16T12:13:02;0.50;;;0.30;;
32639;SDS011;19049;52.524;11.468;2022-10-16T12:15:30;0.60;;;0.47;;
32639;SDS011;19049;52.524;11.468;2022-10-16T12:17:58;1.77;;;0.90;;
32639;SDS011;19049;52.524;11.468;2022-10-16T12:20:28;0.83;;;0.40;;
32639;SDS011;19049;52.524;11.468;2022-10-16T12:23:00;0.77;;;0.40;;
32639;SDS011;19049;52.524;11.468;2022-10-16T12:25:30;0.90;;;0.43;;
32639;SDS011;19049;52.524;11.468;2022-10-16T12:28:17;0.40;;;0.33;;
32639;SDS011;19049;52.524;11.468;2022-10-16T12:30:54;0.83;;;0.40;;
32639;SDS011;19049;52.524;11.468;2022-10-16T12:33:35;1.33;;;0.60;;
32639;SDS011;19049;52.524;11.468;2022-10-16T12:36:06;0.50;;;0.30;;
32639;SDS011;19049;52.524;11.468;2022-10-16T12:38:49;0.40;;;0.30;;
32639;SDS011;19049;52.524;11.468;2022-10-16T12:41:32;2.37;;;0.40;;
32639;SDS011;19049;52.524;11.468;2022-10-16T12:44:01;0.90;;;0.43;;
32639;SDS011;19049;52.524;11.468;2022-10-16T12:51:39;0.20;;;0.20;;
32639;SDS011;19049;52.524;11.468;2022-10-16T12:54:13;0.33;;;0.30;;
32639;SDS011;19049;52.524;11.468;2022-10-16T12:57:01;0.50;;;0.40;;
32639;SDS011;19049;52.524;11.468;2022-10-16T12:59:54;0.60;;;0.50;;
32639;SDS011;19049;52.524;11.468;2022-10-16T13:18:57;0.70;;;0.40;;
32639;SDS011;19049;52.524;11.468;2022-10-16T13:24:15;0.53;;;0.40;;
32639;SDS011;19049;52.524;11.468;2022-10-16T13:27:02;0.97;;;0.47;;
32639;SDS011;19049;52.524;11.468;2022-10-16T13:29:52;1.87;;;0.50;;
32639;SDS011;19049;52.524;11.468;2022-10-16T13:32:25;0.70;;;0.50;;
32639;SDS011;19049;52.524;11.468;2022-10-16T13:34:52;0.40;;;0.33;;
32639;SDS011;19049;52.524;11.468;2022-10-16T13:37:19;0.40;;;0.40;;
32639;SDS011;19049;52.524;11.468;2022-10-16T13:39:47;0.57;;;0.30;;
32639;SDS011;19049;52.524;11.468;2022-10-16T13:42:24;0.30;;;0.30;;
32639;SDS011;19049;52.524;11.468;2022-10-16T13:44:52;1.83;;;0.50;;
32639;SDS011;19049;52.524;11.468;2022-10-16T13:47:26;0.63;;;0.30;;
32639;SDS011;19049;52.524;11.468;2022-10-16T13:52:26;1.00;;;0.30;;
32639;SDS011;19049;52.524;11.468;2022-10-16T13:54:52;0.40;;;0.30;;
32639;SDS011;19049;52.524;11.468;2022-10-16T13:57:17;0.93;;;0.40;;
32639;SDS011;19049;52.524;11.468;2022-10-16T13:59:46;1.80;;;0.50;;
32639;SDS011;19049;52.524;11.468;2022-10-16T14:04:44;0.30;;;0.30;;
32639;SDS011;19049;52.524;11.468;2022-10-16T14:07:16;0.73;;;0.47;;
32639;SDS011;19049;52.524;11.468;2022-10-16T14:09:54;0.30;;;0.30;;
32639;SDS011;19049;52.524;11.468;2022-10-16T14:12:20;0.97;;;0.47;;
32639;SDS011;19049;52.524;11.468;2022-10-16T14:14:49;0.80;;;0.50;;
32639;SDS011;19049;52.524;11.468;2022-10-16T14:19:54;0.57;;;0.40;;
32639;SDS011;19049;52.524;11.468;2022-10-16T14:24:50;1.17;;;0.30;;
32639;SDS011;19049;52.524;11.468;2022-10-16T14:33:44;1.17;;;0.43;;
32639;SDS011;19049;52.524;11.468;2022-10-16T14:36:11;1.43;;;0.50;;
32639;SDS011;19049;52.524;11.468;2022-10-16T14:38:39;0.53;;;0.30;;
32639;SDS011;19049;52.524;11.468;2022-10-16T14:41:13;0.70;;;0.37;;
32639;SDS011;19049;52.524;11.468;2022-10-16T14:43:40;0.60;;;0.47;;
32639;SDS011;19049;52.524;11.468;2022-10-16T14:46:09;0.87;;;0.40;;
32639;SDS011;19049;52.524;11.468;2022-10-16T14:48:42;0.63;;;0.50;;
32639;SDS011;19049;52.524;11.468;2022-10-16T14:51:12;0.67;;;0.40;;
32639;SDS011;19049;52.524;11.468;2022-10-16T14:53:39;1.90;;;0.40;;
32639;SDS011;19049;52.524;11.468;2022-10-16T14:56:06;0.47;;;0.33;;
32639;SDS011;19049;52.524;11.468;2022-10-16T14:58:33;1.13;;;0.37;;
32639;SDS011;19049;52.524;11.468;2022-10-16T15:01:00;0.77;;;0.40;;
32639;SDS011;19049;52.524;11.468;2022-10-16T15:03:26;0.73;;;0.33;;
32639;SDS011;19049;52.524;11.468;2022-10-16T15:05:51;0.73;;;0.30;;
32639;SDS011;19049;52.524;11.468;2022-10-16T15:08:17;0.30;;;0.30;;
32639;SDS011;19049;52.524;11.468;2022-10-16T15:10:43;2.30;;;0.40;;
32639;SDS011;19049;52.524;11.468;2022-10-16T15:13:11;0.37;;;0.30;;
32639;SDS011;19049;52.524;11.468;2022-10-16T15:18:11;0.60;;;0.40;;
32639;SDS011;19049;52.524;11.468;2022-10-16T15:20:39;1.73;;;0.40;;
32639;SDS011;19049;52.524;11.468;2022-10-16T15:23:06;0.87;;;0.40;;
32639;SDS011;19049;52.524;11.468;2022-10-16T15:25:58;0.40;;;0.30;;
32639;SDS011;19049;52.524;11.468;2022-10-16T15:28:24;0.27;;;0.20;;
32639;SDS011;19049;52.524;11.468;2022-10-16T15:30:51;0.30;;;0.30;;
32639;SDS011;19049;52.524;11.468;2022-10-16T15:33:19;0.77;;;0.37;;
32639;SDS011;19049;52.524;11.468;2022-10-16T15:35:51;0.37;;;0.30;;
32639;SDS011;19049;52.524;11.468;2022-10-16T15:38:18;0.60;;;0.33;;
32639;SDS011;19049;52.524;11.468;2022-10-16T15:40:46;0.30;;;0.30;;
32639;SDS011;19049;52.524;11.468;2022-10-16T15:43:12;1.83;;;0.60;;
32639;SDS011;19049;52.524;11.468;2022-10-16T15:45:38;0.90;;;0.30;;
32639;SDS011;19049;52.524;11.468;2022-10-16T15:48:04;1.23;;;0.37;;
32639;SDS011;19049;52.524;11.468;2022-10-16T15:50:31;0.20;;;0.20;;
32639;SDS011;19049;52.524;11.468;2022-10-16T15:52:57;1.27;;;0.40;;
32639;SDS011;19049;52.524;11.468;2022-10-16T15:55:23;0.60;;;0.33;;
32639;SDS011;19049;52.524;11.468;2022-10-16T15:57:49;0.30;;;0.30;;
32639;SDS011;19049;52.524;11.468;2022-10-16T16:00:16;0.20;;;0.20;;
32639;SDS011;19049;52.524;11.468;2022-10-16T16:02:49;0.77;;;0.30;;
32639;SDS011;19049;52.524;11.468;2022-10-16T16:05:18;0.30;;;0.20;;
32639;SDS011;19049;52.524;11.468;2022-10-16T16:07:45;0.23;;;0.20;;
32639;SDS011;19049;52.524;11.468;2022-10-16T16:10:11;0.60;;;0.30;;
32639;SDS011;19049;52.524;11.468;2022-10-16T16:12:37;0.50;;;0.37;;
32639;SDS011;19049;52.524;11.468;2022-10-16T16:15:07;0.37;;;0.30;;
32639;SDS011;19049;52.524;11.468;2022-10-16T16:17:34;0.30;;;0.30;;
32639;SDS011;19049;52.524;11.468;2022-10-16T16:20:04;1.27;;;0.40;;
32639;SDS011;19049;52.524;11.468;2022-10-16T16:22:30;0.83;;;0.30;;
32639;SDS011;19049;52.524;11.468;2022-10-16T16:24:56;0.53;;;0.30;;
32639;SDS011;19049;52.524;11.468;2022-10-16T16:27:21;0.57;;;0.50;;
32639;SDS011;19049;52.524;11.468;2022-10-16T16:29:49;0.20;;;0.20;;
32639;SDS011;19049;52.524;11.468;2022-10-16T16:32:15;0.70;;;0.30;;
32639;SDS011;19049;52.524;11.468;2022-10-16T16:34:41;0.53;;;0.30;;
32639;SDS011;19049;52.524;11.468;2022-10-16T16:37:07;1.10;;;0.30;;
32639;SDS011;19049;52.524;11.468;2022-10-16T16:39:33;1.33;;;0.40;;
32639;SDS011;19049;52.524;11.468;2022-10-16T16:41:58;0.30;;;0.30;;
32639;SDS011;19049;52.524;11.468;2022-10-16T16:44:24;0.20;;;0.20;;
32639;SDS011;19049;52.524;11.468;2022-10-16T16:46:51;0.20;;;0.20;;
32639;SDS011;19049;52.524;11.468;2022-10-16T16:49:17;0.30;;;0.30;;
32639;SDS011;19049;52.524;11.468;2022-10-16T16:51:43;0.70;;;0.30;;
32639;SDS011;19049;52.524;11.468;2022-10-16T16:54:10;0.80;;;0.30;;
32639;SDS011;19049;52.524;11.468;2022-10-16T16:56:37;0.87;;;0.30;;
32639;SDS011;19049;52.524;11.468;2022-10-16T16:59:04;0.30;;;0.30;;